createdAt,value
2019-02-28T00:03:04.575Z,0.80
2019-02-28T00:05:33.171Z,0.70
2019-02-28T00:08:01.643Z,0.69
2019-02-28T00:10:30.873Z,0.70
2019-02-28T00:13:09.885Z,0.76
2019-02-28T00:15:38.171Z,0.80
2019-02-28T00:18:06.031Z,0.73
2019-02-28T00:20:34.138Z,0.73
2019-02-28T00:23:02.714Z,0.68
2019-02-28T00:25:31.398Z,0.60
2019-02-28T00:27:59.915Z,0.59
2019-02-28T00:30:28.480Z,0.65
2019-02-28T00:32:59.301Z,0.71
2019-02-28T00:35:27.303Z,0.74
2019-02-28T00:37:56.682Z,0.75
2019-02-28T00:40:26.005Z,0.70
2019-02-28T00:42:53.910Z,0.66
2019-02-28T00:45:21.758Z,0.70
2019-02-28T00:47:49.922Z,0.68
2019-02-28T00:50:18.209Z,0.66
2019-02-28T00:52:46.089Z,0.61
2019-02-28T00:55:15.241Z,0.59
2019-02-28T00:57:50.726Z,0.53
2019-02-28T01:00:18.700Z,0.50
2019-02-28T01:02:52.163Z,0.54
2019-02-28T01:05:26.391Z,0.48
2019-02-28T01:07:54.919Z,0.41
2019-02-28T01:10:23.506Z,0.36
2019-02-28T01:12:54.368Z,0.34
2019-02-28T01:15:28.913Z,0.27
2019-02-28T01:18:00.481Z,0.27
2019-02-28T01:20:34.845Z,0.28
2019-02-28T01:23:03.132Z,0.21
2019-02-28T01:25:31.728Z,0.23
2019-02-28T01:27:59.998Z,0.27
2019-02-28T01:30:28.582Z,0.36
2019-02-28T01:32:56.573Z,0.33
2019-02-28T01:35:25.160Z,0.33
2019-02-28T01:37:53.406Z,0.36
2019-02-28T01:40:21.240Z,0.34
2019-02-28T01:42:54.004Z,0.29
2019-02-28T01:45:26.460Z,0.22
2019-02-28T01:47:54.751Z,0.18
2019-02-28T01:50:22.904Z,0.16
2019-02-28T01:52:51.522Z,0.11
2019-02-28T01:55:20.100Z,0.07
2019-02-28T01:57:48.720Z,0.04
2019-02-28T02:03:40.674Z,-0.01
2019-02-28T02:06:14.734Z,-0.04
2019-02-28T02:08:42.692Z,-0.07
2019-02-28T02:11:11.301Z,-0.06
2019-02-28T02:13:39.900Z,-0.04
2019-02-28T02:16:08.062Z,-0.05
2019-02-28T02:18:36.708Z,0.00
2019-02-28T02:21:04.565Z,-0.03
2019-02-28T02:23:33.040Z,-0.04
2019-02-28T02:26:01.443Z,-0.04
2019-02-28T02:28:29.781Z,-0.08
2019-02-28T02:30:58.065Z,-0.07
2019-02-28T02:33:26.043Z,-0.07
2019-02-28T02:35:54.560Z,-0.09
2019-02-28T02:38:23.117Z,-0.11
2019-02-28T02:40:59.056Z,-0.10
2019-02-28T02:43:32.099Z,-0.06
2019-02-28T02:46:00.377Z,-0.01
2019-02-28T02:48:28.392Z,-0.02
2019-02-28T02:50:57.052Z,-0.06
2019-02-28T02:53:25.300Z,0.05
2019-02-28T02:55:53.922Z,0.06
2019-02-28T02:58:26.636Z,-0.01
2019-02-28T03:00:58.941Z,-0.05
2019-02-28T03:03:27.225Z,-0.05
2019-02-28T03:05:54.995Z,-0.04
2019-02-28T03:08:23.690Z,-0.05
2019-02-28T03:10:53.031Z,0.03
2019-02-28T03:13:28.131Z,0.02
2019-02-28T03:15:59.303Z,0.09
2019-02-28T03:18:36.261Z,0.15
2019-02-28T03:21:04.479Z,0.12
2019-02-28T03:23:37.954Z,0.14
2019-02-28T03:26:12.480Z,0.16
2019-02-28T03:28:40.761Z,0.09
2019-02-28T03:31:14.481Z,0.09
2019-02-28T03:33:46.413Z,0.15
2019-02-28T03:36:15.856Z,0.23
2019-02-28T03:38:50.981Z,0.26
2019-02-28T03:41:19.542Z,0.22
2019-02-28T03:43:47.827Z,0.25
2019-02-28T03:46:16.060Z,0.22
2019-02-28T03:48:44.330Z,0.13
2019-02-28T03:51:12.977Z,0.03
2019-02-28T03:53:41.582Z,0.03
2019-02-28T03:56:14.293Z,-0.01
2019-02-28T03:58:46.538Z,-0.09
2019-02-28T04:01:14.439Z,-0.10
2019-02-28T04:03:42.686Z,-0.10
2019-02-28T04:06:11.211Z,-0.14
2019-02-28T04:08:39.795Z,-0.17
2019-02-28T04:11:07.652Z,-0.21
2019-02-28T04:13:36.342Z,-0.21
2019-02-28T04:16:09.252Z,-0.23
2019-02-28T04:18:45.897Z,-0.26
2019-02-28T04:21:21.404Z,-0.31
2019-02-28T04:23:50.033Z,-0.33
2019-02-28T04:26:18.307Z,-0.31
2019-02-28T04:28:53.513Z,-0.36
2019-02-28T04:31:20.075Z,-0.38
2019-02-28T04:33:54.748Z,-0.40
2019-02-28T04:36:22.572Z,-0.48
2019-02-28T04:38:51.705Z,-0.42
2019-02-28T04:41:32.796Z,-0.44
2019-02-28T04:44:06.425Z,-0.47
2019-02-28T04:46:34.732Z,-0.50
2019-02-28T04:49:03.025Z,-0.58
2019-02-28T04:51:31.263Z,-0.58
2019-02-28T04:53:59.546Z,-0.55
2019-02-28T04:56:27.764Z,-0.59
2019-02-28T04:58:56.470Z,-0.57
2019-02-28T05:01:32.201Z,-0.62
2019-02-28T05:04:02.176Z,-0.70
2019-02-28T05:06:37.176Z,-0.72
2019-02-28T05:09:06.979Z,-0.78
2019-02-28T05:11:34.493Z,-0.77
2019-02-28T05:14:02.958Z,-0.75
2019-02-28T05:16:30.817Z,-0.74
2019-02-28T05:19:01.587Z,-0.71
2019-02-28T05:21:29.217Z,-0.67
2019-02-28T05:23:57.197Z,-0.63
2019-02-28T05:26:26.227Z,-0.56
2019-02-28T05:29:01.866Z,-0.59
2019-02-28T05:31:30.354Z,-0.64
2019-02-28T05:33:58.962Z,-0.70
2019-02-28T05:36:27.203Z,-0.65
2019-02-28T05:38:56.689Z,-0.64
2019-02-28T05:41:36.214Z,-0.67
2019-02-28T05:44:15.025Z,-0.67
2019-02-28T05:46:43.703Z,-0.61
2019-02-28T05:49:12.399Z,-0.57
2019-02-28T05:51:40.222Z,-0.43
2019-02-28T05:54:08.822Z,-0.36
2019-02-28T05:56:36.759Z,-0.31
2019-02-28T05:59:04.665Z,-0.26
2019-02-28T06:01:33.351Z,-0.14
2019-02-28T06:04:03.315Z,0.05
2019-02-28T06:06:38.513Z,0.24
2019-02-28T06:09:06.830Z,0.61
2019-02-28T06:11:35.836Z,1.90
2019-02-28T06:14:11.568Z,3.29
2019-02-28T06:16:40.133Z,4.69
2019-02-28T06:19:09.094Z,6.31
2019-02-28T06:21:49.185Z,6.64
2019-02-28T06:24:17.502Z,6.94
2019-02-28T06:26:45.448Z,7.76
2019-02-28T06:29:13.640Z,8.10
2019-02-28T06:31:41.962Z,8.16
2019-02-28T06:34:10.354Z,8.22
2019-02-28T06:36:38.645Z,8.11
2019-02-28T06:39:07.222Z,8.00
2019-02-28T06:41:35.947Z,8.01
2019-02-28T06:44:04.566Z,8.03
2019-02-28T06:46:33.126Z,7.95
2019-02-28T06:49:06.888Z,7.87
2019-02-28T06:51:38.517Z,8.00
2019-02-28T06:54:07.938Z,8.15
2019-02-28T06:56:44.164Z,8.20
2019-02-28T06:59:23.989Z,8.47
2019-02-28T07:01:56.640Z,8.63
2019-02-28T07:04:28.363Z,8.65
2019-02-28T07:06:56.708Z,8.86
2019-02-28T07:09:24.905Z,8.82
2019-02-28T07:11:54.854Z,9.01
2019-02-28T07:14:33.051Z,9.24
2019-02-28T07:17:01.736Z,9.15
2019-02-28T07:19:30.276Z,9.15
2019-02-28T07:21:58.496Z,9.40
2019-02-28T07:24:27.189Z,9.66
2019-02-28T07:26:55.385Z,9.74
2019-02-28T07:29:23.750Z,9.74
2019-02-28T07:31:52.029Z,10.10
2019-02-28T07:34:23.807Z,10.05
2019-02-28T07:36:51.094Z,10.03
2019-02-28T07:39:19.353Z,10.08
2019-02-28T07:41:48.079Z,10.12
2019-02-28T07:44:21.223Z,10.30
2019-02-28T07:46:53.449Z,10.27
2019-02-28T07:49:22.218Z,10.28
2019-02-28T07:52:02.197Z,10.51
2019-02-28T07:54:43.192Z,10.44
2019-02-28T07:57:16.957Z,10.55
2019-02-28T07:59:42.726Z,10.55
2019-02-28T08:02:10.771Z,10.63
2019-02-28T08:04:39.440Z,10.74
2019-02-28T08:07:08.125Z,10.78
2019-02-28T08:09:55.351Z,10.67
2019-02-28T08:12:23.694Z,10.70
2019-02-28T08:15:13.746Z,10.89
2019-02-28T08:17:44.033Z,10.97
2019-02-28T08:20:12.665Z,10.93
2019-02-28T08:22:41.947Z,11.00
2019-02-28T08:25:13.256Z,11.02
2019-02-28T08:27:41.228Z,11.00
2019-02-28T08:30:28.575Z,11.14
2019-02-28T08:32:57.553Z,11.20
2019-02-28T08:35:25.987Z,11.26
2019-02-28T08:38:06.918Z,11.26
2019-02-28T08:40:35.700Z,11.28
2019-02-28T08:43:03.981Z,11.35
2019-02-28T08:45:33.522Z,11.40
2019-02-28T08:48:09.558Z,11.43
2019-02-28T08:50:37.837Z,11.36
2019-02-28T08:53:06.570Z,11.40
2019-02-28T08:55:38.291Z,11.39
2019-02-28T08:58:24.567Z,11.49
2019-02-28T09:00:52.854Z,11.51
2019-02-28T09:03:21.071Z,11.62
2019-02-28T09:05:49.476Z,11.65
2019-02-28T09:08:17.392Z,11.93
2019-02-28T09:10:46.965Z,12.10
2019-02-28T09:13:25.585Z,12.25
2019-02-28T09:15:54.238Z,12.42
2019-02-28T09:18:23.026Z,12.53
2019-02-28T09:20:51.809Z,12.62
2019-02-28T09:23:20.487Z,12.83
2019-02-28T09:25:48.884Z,12.99
2019-02-28T09:28:17.653Z,13.24
2019-02-28T09:30:46.462Z,13.50
2019-02-28T09:33:15.294Z,13.63
2019-02-28T09:35:46.269Z,13.75
2019-02-28T09:38:20.401Z,13.86
2019-02-28T09:43:28.758Z,14.33
2019-02-28T09:45:56.944Z,14.82
2019-02-28T09:48:24.548Z,14.92
2019-02-28T09:50:57.744Z,14.90
2019-02-28T09:53:29.979Z,15.13
2019-02-28T09:55:58.664Z,15.39
2019-02-28T09:58:29.303Z,15.53
2019-02-28T10:04:10.420Z,15.46
2019-02-28T10:06:38.667Z,15.34
2019-02-28T10:09:08.819Z,15.57
2019-02-28T10:11:37.417Z,16.18
2019-02-28T10:14:05.850Z,16.55
2019-02-28T10:16:53.391Z,16.58
2019-02-28T10:19:45.744Z,16.33
2019-02-28T10:22:17.879Z,16.31
2019-02-28T10:24:46.229Z,16.64
2019-02-28T10:27:14.657Z,17.21
2019-02-28T10:29:43.137Z,17.10
2019-02-28T10:32:11.720Z,17.24
2019-02-28T10:34:39.843Z,17.51
2019-02-28T10:37:08.724Z,17.74
2019-02-28T10:39:40.325Z,17.40
2019-02-28T10:42:14.613Z,17.41
2019-02-28T10:44:42.973Z,17.10
2019-02-28T10:47:11.546Z,16.63
2019-02-28T10:49:39.892Z,16.54
2019-02-28T10:52:30.422Z,17.05
2019-02-28T10:55:07.515Z,17.12
2019-02-28T10:57:54.535Z,17.50
2019-02-28T11:01:07.765Z,17.45
2019-02-28T11:04:00.270Z,17.94
2019-02-28T11:06:39.252Z,17.94
2019-02-28T11:12:09.399Z,18.49
2019-02-28T11:14:38.794Z,18.49
2019-02-28T11:17:13.508Z,18.76
2019-02-28T11:19:52.019Z,18.53
2019-02-28T11:22:44.472Z,17.87
2019-02-28T11:25:13.237Z,17.87
2019-02-28T11:27:42.145Z,17.77
2019-02-28T11:30:53.221Z,17.23
2019-02-28T11:33:22.857Z,17.04
2019-02-28T11:35:51.220Z,17.25
2019-02-28T11:38:21.503Z,16.55
2019-02-28T11:40:57.487Z,16.28
2019-02-28T11:43:53.725Z,16.46
2019-02-28T11:46:22.760Z,16.64
2019-02-28T11:48:53.974Z,16.79
2019-02-28T11:51:22.333Z,16.63
2019-02-28T11:54:12.295Z,16.89
2019-02-28T11:56:46.185Z,16.88
2019-02-28T11:59:33.164Z,16.89
2019-02-28T12:02:03.931Z,16.96
2019-02-28T12:04:33.773Z,16.95
2019-02-28T12:07:03.200Z,16.81
2019-02-28T12:09:51.506Z,16.68
2019-02-28T12:12:26.688Z,16.73
2019-02-28T12:14:55.394Z,16.93
2019-02-28T12:17:25.530Z,17.29
2019-02-28T12:19:54.426Z,17.55
2019-02-28T12:25:33.003Z,16.93
2019-02-28T12:30:41.998Z,16.04
2019-02-28T12:33:10.594Z,16.04
2019-02-28T12:35:40.486Z,16.10
2019-02-28T12:38:15.145Z,16.62
2019-02-28T12:40:45.659Z,16.92
2019-02-28T12:43:13.500Z,17.12
2019-02-28T12:46:22.195Z,16.95
2019-02-28T12:48:53.208Z,16.50
2019-02-28T12:51:36.568Z,15.56
2019-02-28T12:54:04.014Z,15.34
2019-02-28T12:56:31.968Z,15.07
2019-02-28T12:59:00.453Z,15.56
2019-02-28T13:01:29.125Z,16.41
2019-02-28T13:04:00.649Z,17.18
2019-02-28T13:06:33.188Z,17.76
2019-02-28T13:09:01.194Z,18.16
2019-02-28T13:14:30.522Z,17.88
2019-02-28T13:16:58.830Z,17.70
2019-02-28T13:19:26.958Z,17.86
2019-02-28T13:21:55.712Z,17.84
2019-02-28T13:24:24.252Z,17.88
2019-02-28T13:26:53.046Z,18.01
2019-02-28T13:29:22.307Z,18.59
2019-02-28T13:31:50.313Z,18.53
2019-02-28T13:34:19.153Z,18.87
2019-02-28T13:36:47.552Z,18.58
2019-02-28T13:39:15.827Z,19.24
2019-02-28T13:41:44.492Z,19.57
2019-02-28T13:44:12.548Z,19.73
2019-02-28T13:46:40.893Z,19.55
2019-02-28T13:49:12.073Z,19.55
2019-02-28T13:51:46.746Z,19.49
2019-02-28T13:54:34.465Z,19.58
2019-02-28T13:57:08.101Z,19.58
2019-02-28T13:59:40.359Z,18.58
2019-02-28T14:02:09.037Z,18.58
2019-02-28T14:04:37.830Z,18.86
2019-02-28T14:07:07.721Z,18.57
2019-02-28T14:09:36.252Z,19.49
2019-02-28T14:12:04.635Z,20.28
2019-02-28T14:14:33.016Z,20.34
2019-02-28T14:17:02.044Z,20.08
2019-02-28T14:19:30.652Z,19.80
2019-02-28T14:21:59.274Z,19.81
2019-02-28T14:24:30.847Z,19.77
2019-02-28T14:26:57.920Z,19.44
2019-02-28T14:29:48.258Z,19.02
2019-02-28T14:32:25.497Z,19.02
2019-02-28T14:34:57.318Z,18.76
2019-02-28T14:37:25.010Z,18.96
2019-02-28T14:39:53.388Z,18.98
2019-02-28T14:42:22.126Z,18.70
2019-02-28T14:44:50.790Z,17.95
2019-02-28T14:47:18.729Z,17.78
2019-02-28T14:49:47.475Z,18.60
2019-02-28T14:52:15.824Z,18.27
2019-02-28T14:54:43.401Z,18.39
2019-02-28T14:57:13.438Z,18.29
2019-02-28T14:59:48.853Z,18.34
2019-02-28T15:05:38.533Z,18.94
2019-02-28T15:08:06.974Z,19.57
2019-02-28T15:10:55.739Z,20.29
2019-02-28T15:13:24.364Z,20.24
2019-02-28T15:15:54.323Z,20.43
2019-02-28T15:18:30.031Z,20.07
2019-02-28T15:21:18.989Z,20.38
2019-02-28T15:23:47.303Z,20.83
2019-02-28T15:26:15.928Z,19.90
2019-02-28T15:28:45.489Z,19.43
2019-02-28T15:34:30.215Z,17.71
2019-02-28T15:37:07.035Z,18.03
2019-02-28T15:39:54.615Z,18.86
2019-02-28T15:42:22.642Z,17.72
2019-02-28T15:44:51.995Z,18.50
2019-02-28T15:47:23.236Z,18.78
2019-02-28T15:49:56.679Z,18.31
2019-02-28T15:58:28.356Z,19.08
2019-02-28T16:00:57.509Z,19.32
2019-02-28T16:03:33.481Z,17.73
2019-02-28T16:06:01.739Z,17.37
2019-02-28T16:08:30.580Z,16.70
2019-02-28T16:10:59.581Z,16.07
2019-02-28T16:13:39.925Z,15.42
2019-02-28T16:16:08.751Z,15.12
2019-02-28T16:18:37.550Z,15.32
2019-02-28T16:21:09.899Z,14.78
2019-02-28T16:23:37.946Z,14.25
2019-02-28T16:26:06.551Z,13.84
2019-02-28T16:28:34.226Z,13.66
2019-02-28T16:31:03.224Z,13.49
2019-02-28T16:33:43.184Z,13.39
2019-02-28T16:36:11.551Z,13.27
2019-02-28T16:38:42.424Z,13.30
2019-02-28T16:41:17.125Z,13.29
2019-02-28T16:43:45.392Z,13.21
2019-02-28T16:46:24.881Z,13.18
2019-02-28T16:48:53.627Z,13.10
2019-02-28T16:51:22.290Z,12.94
2019-02-28T16:53:50.668Z,12.79
2019-02-28T16:56:59.678Z,12.65
2019-02-28T16:59:28.434Z,12.57
2019-02-28T17:04:54.837Z,12.23
2019-02-28T17:07:22.479Z,12.24
2019-02-28T17:09:51.293Z,12.11
2019-02-28T17:12:54.072Z,12.05
2019-02-28T17:18:13.098Z,11.77
2019-02-28T17:20:42.069Z,11.57
2019-02-28T17:23:11.800Z,11.47
2019-02-28T17:25:40.238Z,11.34
2019-02-28T17:31:23.557Z,11.34
2019-02-28T17:33:51.864Z,11.23
2019-02-28T17:36:20.624Z,11.28
2019-02-28T17:38:59.998Z,11.25
2019-02-28T17:41:28.382Z,11.21
2019-02-28T17:44:37.546Z,11.15
2019-02-28T17:47:55.819Z,11.06
2019-02-28T17:51:11.050Z,11.04
2019-02-28T17:54:11.034Z,10.88
2019-02-28T17:56:51.824Z,10.86
2019-02-28T17:59:32.578Z,10.87
2019-02-28T18:02:39.376Z,10.79
2019-02-28T18:05:36.480Z,10.84
2019-02-28T18:08:37.753Z,10.75
2019-02-28T18:11:50.728Z,10.67
2019-02-28T18:14:42.572Z,10.52
2019-02-28T18:17:49.311Z,10.60
2019-02-28T18:20:29.891Z,10.58
2019-02-28T18:23:06.327Z,10.44
2019-02-28T18:26:15.513Z,10.47
2019-02-28T18:29:22.223Z,10.38
2019-02-28T18:31:53.907Z,10.31
2019-02-28T18:34:24.135Z,10.21
2019-02-28T18:36:52.959Z,10.11
2019-02-28T18:39:21.395Z,10.03
2019-02-28T18:41:50.783Z,10.01
2019-02-28T18:44:26.933Z,10.01
2019-02-28T18:46:55.592Z,9.94
2019-02-28T18:49:26.685Z,9.92
2019-02-28T18:52:07.213Z,9.91
2019-02-28T18:54:34.806Z,9.80
2019-02-28T18:57:02.809Z,9.72
2019-02-28T18:59:31.320Z,9.67
2019-02-28T19:01:59.240Z,9.59
2019-02-28T19:04:28.563Z,9.46
2019-02-28T19:06:57.056Z,9.37
2019-02-28T19:09:25.973Z,9.32
2019-02-28T19:11:55.181Z,9.29
2019-02-28T19:14:46.920Z,9.23
2019-02-28T19:17:15.270Z,9.18
2019-02-28T19:19:43.708Z,9.09
2019-02-28T19:22:17.001Z,9.04
2019-02-28T19:24:45.688Z,9.00
2019-02-28T19:27:13.931Z,9.00
2019-02-28T19:29:41.921Z,8.89
2019-02-28T19:32:09.933Z,8.92
2019-02-28T19:34:38.697Z,8.82
2019-02-28T19:37:07.034Z,8.81
2019-02-28T19:39:35.789Z,8.79
2019-02-28T19:42:04.233Z,8.73
2019-02-28T19:44:32.197Z,8.70
2019-02-28T19:47:01.003Z,8.66
2019-02-28T19:49:29.339Z,8.65
2019-02-28T19:51:56.982Z,8.57
2019-02-28T19:54:24.973Z,8.55
2019-02-28T19:56:53.316Z,8.51
2019-02-28T19:59:40.380Z,8.42
2019-02-28T20:02:08.895Z,8.36
2019-02-28T20:04:37.591Z,8.33
2019-02-28T20:07:06.014Z,8.32
2019-02-28T20:09:56.153Z,8.26
2019-02-28T20:12:24.856Z,8.23
2019-02-28T20:14:53.886Z,8.13
2019-02-28T20:17:23.201Z,8.08
2019-02-28T20:23:11.206Z,7.98
2019-02-28T20:25:39.421Z,8.05
2019-02-28T20:28:09.196Z,8.06
2019-02-28T20:30:38.298Z,8.08
2019-02-28T20:33:06.457Z,8.09
2019-02-28T20:35:34.700Z,8.10
2019-02-28T20:38:03.024Z,8.10
2019-02-28T20:40:50.430Z,8.08
2019-02-28T20:43:19.962Z,8.05
2019-02-28T20:45:48.942Z,7.99
2019-02-28T20:48:18.335Z,8.05
2019-02-28T20:51:06.166Z,8.04
2019-02-28T20:53:35.177Z,8.03
2019-02-28T20:56:03.954Z,8.00
2019-02-28T20:58:32.278Z,7.91
2019-02-28T21:01:01.165Z,7.94
2019-02-28T21:03:30.003Z,7.89
2019-02-28T21:05:57.896Z,7.89
2019-02-28T21:08:26.774Z,7.84
2019-02-28T21:10:55.419Z,7.90
2019-02-28T21:13:24.214Z,7.79
2019-02-28T21:15:52.167Z,7.79
2019-02-28T21:18:20.621Z,7.75
2019-02-28T21:20:48.668Z,7.77
2019-02-28T21:23:16.678Z,7.77
2019-02-28T21:25:45.410Z,7.78
2019-02-28T21:28:13.895Z,7.83
2019-02-28T21:30:42.349Z,7.84
2019-02-28T21:33:10.985Z,7.85
2019-02-28T21:35:39.770Z,7.85
2019-02-28T21:38:08.118Z,7.80
2019-02-28T21:40:36.525Z,7.82
2019-02-28T21:43:23.855Z,7.79
2019-02-28T21:45:52.926Z,7.78
2019-02-28T21:48:21.241Z,7.76
2019-02-28T21:50:50.433Z,7.73
2019-02-28T21:53:20.255Z,7.74
2019-02-28T21:56:09.102Z,7.76
2019-02-28T22:01:58.586Z,7.49
2019-02-28T22:04:27.482Z,7.15
2019-02-28T22:06:55.703Z,6.88
2019-02-28T22:09:23.557Z,6.73
2019-02-28T22:11:52.165Z,6.60
2019-02-28T22:14:19.718Z,6.57
2019-02-28T22:16:48.268Z,6.57
2019-02-28T22:19:17.297Z,6.47
2019-02-28T22:21:45.293Z,6.43
2019-02-28T22:24:14.371Z,6.52
2019-02-28T22:26:43.606Z,6.46
2019-02-28T22:29:31.265Z,6.43
2019-02-28T22:32:13.585Z,6.44
2019-02-28T22:34:53.191Z,6.48
2019-02-28T22:37:20.777Z,6.62
2019-02-28T22:39:49.364Z,6.63
2019-02-28T22:42:22.192Z,6.72
2019-02-28T22:44:57.803Z,6.74
2019-02-28T22:47:25.306Z,6.68
2019-02-28T22:49:53.655Z,6.72
2019-02-28T22:52:21.989Z,6.69
2019-02-28T22:54:50.342Z,6.61
2019-02-28T22:57:18.710Z,6.63
2019-02-28T22:59:47.406Z,6.62
2019-02-28T23:02:16.096Z,6.59
2019-02-28T23:04:44.852Z,6.62
2019-02-28T23:07:13.164Z,6.61
2019-02-28T23:09:41.828Z,6.60
2019-02-28T23:12:10.536Z,6.66
2019-02-28T23:14:40.803Z,6.67
2019-02-28T23:17:09.149Z,6.76
2019-02-28T23:19:37.438Z,6.74
2019-02-28T23:22:27.045Z,6.69
2019-02-28T23:24:55.731Z,6.79
2019-02-28T23:27:23.970Z,6.76
2019-02-28T23:30:14.117Z,6.81
2019-02-28T23:32:55.916Z,6.92
2019-02-28T23:35:44.809Z,6.86
2019-02-28T23:38:13.101Z,6.70
2019-02-28T23:40:41.462Z,6.66
2019-02-28T23:43:10.055Z,6.77
2019-02-28T23:45:38.898Z,6.79
2019-02-28T23:48:07.465Z,6.83
2019-02-28T23:50:36.327Z,6.73
2019-02-28T23:53:05.034Z,6.72
2019-02-28T23:55:33.000Z,6.67
2019-02-28T23:58:01.754Z,6.75
